Time;durP1;ratioP1;P1;durP2;ratioP2;P2;SDS_P1;SDS_P2;PMS_P1;PMS_P2;Temp;Humidity;BMP_temperature;BMP_pressure;BME280_temperature;BME280_humidity;BME280_pressure;Samples;Min_cycle;Max_cycle;Signal;HPM_P1;HPM_P2
2023/02/11 00:02:04;;;;;;;20.75;9.40;;;6.10;86.90;;;;;;5038762;28;20409;-76
2023/02/11 00:04:30;;;;;;;22.65;9.32;;;6.10;86.90;;;;;;5036908;28;20043;-76
2023/02/11 00:06:56;;;;;;;20.92;9.27;;;6.10;87.00;;;;;;5038437;28;20053;-76
2023/02/11 00:09:22;;;;;;;27.88;9.38;;;6.10;86.90;;;;;;5039691;28;20029;-77
2023/02/11 00:11:48;;;;;;;16.50;8.65;;;6.10;86.80;;;;;;5036870;28;20033;-75
2023/02/11 00:14:14;;;;;;;17.98;8.05;;;6.10;86.90;;;;;;5031153;28;20690;-75
2023/02/11 00:16:39;;;;;;;19.45;9.18;;;6.00;86.90;;;;;;5036562;28;20035;-75
2023/02/11 00:19:05;;;;;;;22.17;9.20;;;6.10;86.90;;;;;;5038127;28;20466;-76
2023/02/11 00:21:32;;;;;;;19.73;8.68;;;6.00;86.90;;;;;;5035499;28;20285;-75
2023/02/11 00:24:01;;;;;;;22.63;9.38;;;6.00;87.00;;;;;;5035912;28;20025;-76
2023/02/11 00:26:35;;;;;;;17.90;9.15;;;6.00;87.00;;;;;;5023323;28;20095;-76
2023/02/11 00:29:02;;;;;;;19.55;7.95;;;6.00;87.10;;;;;;5036058;28;20048;-76
2023/02/11 00:31:28;;;;;;;22.13;9.23;;;6.00;87.10;;;;;;5034463;28;20047;-75
2023/02/11 00:33:54;;;;;;;22.58;9.50;;;6.00;87.10;;;;;;5031153;28;20395;-77
2023/02/11 00:36:22;;;;;;;21.38;10.50;;;6.00;87.10;;;;;;5035538;28;20320;-76
2023/02/11 00:38:49;;;;;;;18.73;9.85;;;6.00;87.30;;;;;;5018701;28;20025;-76
2023/02/11 00:41:15;;;;;;;19.52;10.13;;;6.00;87.30;;;;;;5037062;28;20022;-76
2023/02/11 00:43:41;;;;;;;22.50;10.75;;;6.00;87.30;;;;;;5023033;28;20049;-75
2023/02/11 00:46:07;;;;;;;14.30;9.27;;;6.00;87.30;;;;;;5033912;28;20087;-75
2023/02/11 00:48:33;;;;;;;20.85;10.15;;;6.00;87.20;;;;;;5026228;28;20017;-76
2023/02/11 00:50:59;;;;;;;21.70;10.30;;;6.10;87.30;;;;;;5041768;28;20397;-76
2023/02/11 00:53:25;;;;;;;26.80;10.63;;;6.10;87.20;;;;;;5038869;28;20032;-77
2023/02/11 00:55:50;;;;;;;26.38;10.55;;;6.10;87.30;;;;;;5044651;28;20045;-77
2023/02/11 00:58:16;;;;;;;19.42;10.25;;;6.00;87.30;;;;;;5023592;28;20026;-77
2023/02/11 01:00:42;;;;;;;19.75;9.93;;;6.10;87.30;;;;;;5037965;28;20104;-76
2023/02/11 01:03:07;;;;;;;18.20;10.05;;;6.10;87.30;;;;;;5046325;28;20037;-76
2023/02/11 01:05:33;;;;;;;22.60;10.57;;;6.10;87.30;;;;;;5026011;28;20061;-77
2023/02/11 01:07:59;;;;;;;24.33;10.48;;;6.20;87.30;;;;;;5042286;28;20040;-76
2023/02/11 01:10:25;;;;;;;19.45;10.38;;;6.10;87.30;;;;;;5044174;28;20430;-75
2023/02/11 01:12:51;;;;;;;23.77;11.00;;;6.10;87.30;;;;;;5025553;28;20098;-76
2023/02/11 01:15:19;;;;;;;17.92;10.63;;;6.10;87.20;;;;;;5044488;28;20072;-76
2023/02/11 01:17:45;;;;;;;19.60;10.23;;;6.10;87.30;;;;;;5041790;28;20095;-76
2023/02/11 01:20:18;;;;;;;25.13;10.40;;;6.20;87.30;;;;;;5041926;28;20029;-76
2023/02/11 01:22:44;;;;;;;17.70;10.60;;;6.10;87.30;;;;;;5041447;28;20041;-76
2023/02/11 01:25:10;;;;;;;22.30;10.93;;;6.20;87.30;;;;;;5044277;28;20025;-76
2023/02/11 01:27:37;;;;;;;20.60;11.15;;;6.10;87.30;;;;;;5036574;28;20075;-75
2023/02/11 01:30:05;;;;;;;23.90;11.55;;;6.10;87.20;;;;;;5047806;28;20128;-76
2023/02/11 01:32:31;;;;;;;22.52;12.85;;;6.20;87.30;;;;;;5029438;28;20029;-75
2023/02/11 01:34:56;;;;;;;23.30;12.20;;;6.20;87.30;;;;;;5042075;28;20082;-76
2023/02/11 01:37:22;;;;;;;22.92;12.75;;;6.10;87.40;;;;;;5026372;28;20041;-75
2023/02/11 01:39:48;;;;;;;23.60;13.20;;;6.10;87.50;;;;;;5044257;28;20052;-76
2023/02/11 01:42:23;;;;;;;24.65;12.05;;;6.10;87.50;;;;;;5044952;28;20048;-76
2023/02/11 01:44:50;;;;;;;;;;;6.10;87.60;;;;;;5043553;28;20025;-76
2023/02/11 01:47:15;;;;;;;25.90;13.05;;;6.20;87.70;;;;;;5027938;28;19917;-76
2023/02/11 01:49:56;;;;;;;21.02;11.40;;;6.20;87.80;;;;;;5035657;28;20036;-76
2023/02/11 01:52:27;;;;;;;22.33;11.77;;;6.20;87.90;;;;;;5039102;28;20184;-75
2023/02/11 01:57:47;;;;;;;21.23;12.73;;;6.30;87.80;;;;;;5041062;28;21252;-76
2023/02/11 02:00:36;;;;;;;24.00;12.82;;;6.30;87.80;;;;;;5044168;28;20029;-76
2023/02/11 02:03:04;;;;;;;24.00;14.27;;;6.30;87.70;;;;;;5036484;28;20044;-77
2023/02/11 02:05:52;;;;;;;25.90;13.52;;;6.30;87.70;;;;;;5036359;28;20439;-76
2023/02/11 02:08:42;;;;;;;24.92;14.65;;;6.30;87.80;;;;;;5048871;28;20033;-77
2023/02/11 02:11:08;;;;;;;25.60;15.05;;;6.40;87.70;;;;;;5040830;28;20036;-76
2023/02/11 02:13:35;;;;;;;20.63;11.90;;;6.40;87.70;;;;;;5043649;28;20049;-77
2023/02/11 02:16:04;;;;;;;22.88;13.13;;;6.40;87.70;;;;;;5049111;28;20036;-77
2023/02/11 02:18:55;;;;;;;23.23;14.02;;;6.40;87.70;;;;;;5051082;28;20362;-76
2023/02/11 02:21:39;;;;;;;20.25;14.23;;;6.40;87.80;;;;;;5043924;28;20102;-77
2023/02/11 02:24:21;;;;;;;24.58;13.82;;;6.40;87.80;;;;;;5046094;28;20025;-77
2023/02/11 02:27:06;;;;;;;23.35;14.55;;;6.40;87.70;;;;;;5040391;28;20051;-75
2023/02/11 02:29:50;;;;;;;23.67;13.32;;;6.40;87.70;;;;;;5043860;28;20049;-75
2023/02/11 02:32:37;;;;;;;22.77;13.20;;;6.40;87.70;;;;;;5038704;28;20044;-75
2023/02/11 02:35:33;;;;;;;25.77;14.52;;;6.40;87.80;;;;;;5044419;28;20040;-75
2023/02/11 02:38:06;;;;;;;25.45;15.27;;;6.40;87.80;;;;;;5041035;28;20144;-75
2023/02/11 02:40:57;;;;;;;24.08;13.70;;;6.40;87.80;;;;;;5044337;28;20449;-75
2023/02/11 02:43:26;;;;;;;26.52;13.70;;;6.40;87.80;;;;;;5028680;28;20148;-75
2023/02/11 02:45:52;;;;;;;22.48;13.13;;;6.40;87.90;;;;;;5041521;28;20075;-75
2023/02/11 02:48:26;;;;;;;29.42;14.60;;;6.40;87.80;;;;;;5045576;28;20064;-75
2023/02/11 02:51:07;;;;;;;25.50;13.43;;;6.40;87.80;;;;;;5043283;28;20393;-75
2023/02/11 02:53:44;;;;;;;26.55;13.38;;;6.40;87.90;;;;;;5035798;28;20059;-76
2023/02/11 02:56:29;;;;;;;28.67;13.80;;;6.40;87.90;;;;;;5041056;28;20045;-75
2023/02/11 02:59:06;;;;;;;22.00;13.48;;;6.40;88.00;;;;;;5039471;28;20107;-76
2023/02/11 03:01:50;;;;;;;22.38;13.45;;;6.40;88.10;;;;;;5043568;28;20397;-76
2023/02/11 03:04:29;;;;;;;21.73;13.37;;;6.40;88.00;;;;;;5038183;28;20033;-75
2023/02/11 03:07:24;;;;;;;24.35;13.68;;;6.40;88.00;;;;;;5037470;28;20421;-76
2023/02/11 03:09:59;;;;;;;21.77;13.40;;;6.40;88.10;;;;;;5024769;28;20021;-75
2023/02/11 03:12:26;;;;;;;;;;;6.40;88.10;;;;;;5044097;28;20410;-75
2023/02/11 03:14:52;;;;;;;30.08;13.88;;;6.40;88.20;;;;;;5044222;28;19917;-74
2023/02/11 03:17:19;;;;;;;24.63;13.52;;;6.40;88.30;;;;;;5027041;28;20319;-75
2023/02/11 03:19:48;;;;;;;24.80;13.90;;;6.40;88.30;;;;;;5034297;28;20029;-75
2023/02/11 03:22:31;;;;;;;19.65;13.27;;;6.40;88.30;;;;;;5029569;28;20064;-75
2023/02/11 03:24:56;;;;;;;17.80;12.20;;;6.40;88.40;;;;;;5040317;28;20059;-75
2023/02/11 03:27:54;;;;;;;26.17;14.05;;;6.40;88.40;;;;;;5034209;28;20073;-75
2023/02/11 03:30:39;;;;;;;26.45;13.45;;;6.40;88.50;;;;;;5009823;28;20144;-75
2023/02/11 03:33:11;;;;;;;23.27;13.43;;;6.50;88.50;;;;;;5033187;28;20170;-75
2023/02/11 03:35:46;;;;;;;23.67;13.02;;;6.50;88.50;;;;;;5047397;28;20088;-76
2023/02/11 03:38:18;;;;;;;23.17;12.13;;;6.50;88.50;;;;;;5047168;28;20400;-75
2023/02/11 03:40:46;;;;;;;21.65;12.95;;;6.50;88.50;;;;;;5043323;28;20033;-75
2023/02/11 03:43:16;;;;;;;21.98;12.75;;;6.60;88.60;;;;;;5045769;28;20132;-76
2023/02/11 03:45:44;;;;;;;24.35;12.75;;;6.50;88.70;;;;;;5043348;28;20063;-76
2023/02/11 03:48:23;;;;;;;22.52;13.23;;;6.50;88.70;;;;;;5034893;28;20250;-76
2023/02/11 03:50:51;;;;;;;22.25;14.07;;;6.60;88.70;;;;;;5039930;28;20033;-75
2023/02/11 03:53:19;;;;;;;19.90;12.63;;;6.60;88.70;;;;;;5035969;28;20112;-76
2023/02/11 03:55:47;;;;;;;27.15;13.65;;;6.60;88.70;;;;;;5037491;28;20073;-76
2023/02/11 03:58:13;;;;;;;22.70;14.30;;;6.60;88.70;;;;;;5039409;28;20377;-76
2023/02/11 04:00:41;;;;;;;25.45;14.07;;;6.60;88.70;;;;;;5022392;28;20082;-76
2023/02/11 04:03:08;;;;;;;20.42;12.82;;;6.60;88.60;;;;;;5040075;28;20069;-77
2023/02/11 04:05:34;;;;;;;23.08;13.65;;;6.60;88.70;;;;;;5025789;28;20025;-77
2023/02/11 04:08:00;;;;;;;23.60;13.77;;;6.60;88.70;;;;;;5042731;28;20064;-75
2023/02/11 04:10:25;;;;;;;19.27;13.60;;;6.60;88.80;;;;;;5030162;28;20021;-77
2023/02/11 04:12:51;;;;;;;21.85;13.57;;;6.60;88.60;;;;;;5036334;28;20071;-76
2023/02/11 04:15:17;;;;;;;20.90;13.60;;;6.60;88.60;;;;;;5041593;28;20039;-76
2023/02/11 04:17:42;;;;;;;20.73;13.38;;;6.50;88.50;;;;;;5046519;28;20102;-76
2023/02/11 04:20:09;;;;;;;22.60;15.13;;;6.50;88.60;;;;;;5042609;28;20025;-76
2023/02/11 04:22:35;;;;;;;19.45;13.73;;;6.50;88.50;;;;;;5041015;28;20106;-76
2023/02/11 04:25:01;;;;;;;21.73;14.48;;;6.50;88.50;;;;;;5048341;28;20033;-76
2023/02/11 04:27:27;;;;;;;23.33;14.00;;;6.50;88.60;;;;;;5038572;28;20499;-77
2023/02/11 04:29:53;;;;;;;23.25;14.93;;;6.40;88.70;;;;;;5047868;28;20396;-77
2023/02/11 04:32:18;;;;;;;22.73;14.10;;;6.40;88.70;;;;;;5045970;28;20968;-77
2023/02/11 04:34:44;;;;;;;24.10;14.57;;;6.40;88.80;;;;;;5046819;28;20112;-76
2023/02/11 04:37:10;;;;;;;25.20;14.23;;;6.50;88.80;;;;;;5028075;28;20041;-76
2023/02/11 04:39:35;;;;;;;24.77;14.38;;;6.50;88.90;;;;;;5026958;28;20474;-76
2023/02/11 04:42:01;;;;;;;23.10;14.25;;;6.50;88.80;;;;;;5043451;28;20033;-76
2023/02/11 04:44:27;;;;;;;21.45;13.43;;;6.50;88.90;;;;;;5042674;28;20035;-76
2023/02/11 04:46:53;;;;;;;21.25;13.80;;;6.50;88.80;;;;;;5043873;28;20047;-76
2023/02/11 04:49:19;;;;;;;23.33;13.95;;;6.50;88.80;;;;;;5025908;28;20532;-77
2023/02/11 04:51:44;;;;;;;25.52;13.95;;;6.60;88.80;;;;;;5043048;28;20037;-76
2023/02/11 04:54:10;;;;;;;28.25;13.98;;;6.60;88.80;;;;;;5047136;28;20429;-76
2023/02/11 04:56:36;;;;;;;23.23;15.20;;;6.60;88.90;;;;;;5044542;28;20025;-77
2023/02/11 04:59:03;;;;;;;26.25;14.52;;;6.60;89.00;;;;;;5045614;28;20013;-76
2023/02/11 05:01:29;;;;;;;28.83;15.00;;;6.60;89.10;;;;;;5043891;28;20498;-77
2023/02/11 05:03:55;;;;;;;24.80;15.10;;;6.60;89.10;;;;;;5045909;28;20057;-77
2023/02/11 05:06:21;;;;;;;26.95;15.10;;;6.60;89.10;;;;;;5042420;28;20374;-76
2023/02/11 05:08:47;;;;;;;26.70;15.32;;;6.60;89.10;;;;;;5049155;28;20029;-76
2023/02/11 05:11:21;;;;;;;27.98;15.15;;;6.60;89.20;;;;;;5037415;28;20106;-76
2023/02/11 05:13:47;;;;;;;26.85;14.52;;;6.70;89.20;;;;;;5038795;28;20033;-76
2023/02/11 05:16:14;;;;;;;25.48;14.73;;;6.70;89.20;;;;;;5041090;28;20041;-75
2023/02/11 05:18:41;;;;;;;24.52;16.10;;;6.70;89.30;;;;;;5038311;28;20052;-76
2023/02/11 05:21:09;;;;;;;25.70;15.85;;;6.70;89.40;;;;;;5044297;28;20044;-76
2023/02/11 05:23:36;;;;;;;22.80;15.75;;;6.80;89.40;;;;;;5048719;28;20374;-75
2023/02/11 05:26:02;;;;;;;25.30;15.60;;;6.70;89.50;;;;;;5053374;28;20079;-76
2023/02/11 05:28:28;;;;;;;26.23;15.13;;;6.70;89.60;;;;;;5047353;28;20040;-76
2023/02/11 05:30:54;;;;;;;22.63;16.35;;;6.80;89.60;;;;;;5050904;28;20025;-76
2023/02/11 05:33:20;;;;;;;25.80;16.38;;;6.80;89.70;;;;;;5050458;28;20064;-76
2023/02/11 05:35:46;;;;;;;28.95;17.13;;;6.80;89.70;;;;;;5040617;28;20064;-76
2023/02/11 05:38:12;;;;;;;28.45;17.38;;;6.80;89.80;;;;;;5050727;28;20025;-76
2023/02/11 05:40:37;;;;;;;28.17;16.77;;;6.80;89.80;;;;;;5027133;28;20075;-76
2023/02/11 05:43:03;;;;;;;27.75;16.73;;;6.80;89.80;;;;;;5038760;28;20525;-75
2023/02/11 05:45:29;;;;;;;25.45;16.60;;;6.90;89.80;;;;;;5044457;28;20024;-76
2023/02/11 05:47:54;;;;;;;27.95;16.58;;;6.80;89.80;;;;;;5043271;28;20086;-76
2023/02/11 05:50:20;;;;;;;27.77;16.50;;;6.80;89.80;;;;;;5041019;28;20025;-76
2023/02/11 05:52:46;;;;;;;25.20;17.92;;;6.80;89.80;;;;;;5048204;28;20049;-76
2023/02/11 05:55:11;;;;;;;29.45;18.60;;;6.80;89.80;;;;;;5038237;28;20037;-76
2023/02/11 05:57:37;;;;;;;25.95;17.75;;;6.90;89.80;;;;;;5045821;28;20112;-76
2023/02/11 06:00:04;;;;;;;26.98;17.75;;;6.90;89.80;;;;;;5027323;28;20067;-76
2023/02/11 06:02:30;;;;;;;30.20;18.42;;;6.90;89.90;;;;;;5035982;28;20051;-76
2023/02/11 06:04:55;;;;;;;29.10;17.48;;;6.90;89.90;;;;;;5044810;28;20029;-78
2023/02/11 06:07:21;;;;;;;28.10;18.65;;;6.80;90.00;;;;;;5043765;28;20485;-77
2023/02/11 06:09:47;;;;;;;32.28;19.33;;;6.90;90.00;;;;;;5042683;28;20040;-76
2023/02/11 06:12:12;;;;;;;28.70;18.15;;;6.80;90.10;;;;;;5036589;28;20083;-77
2023/02/11 06:14:38;;;;;;;27.10;18.02;;;6.90;90.10;;;;;;5042879;28;20037;-76
2023/02/11 06:17:04;;;;;;;28.52;19.20;;;6.90;90.10;;;;;;5044566;28;20037;-76
2023/02/11 06:19:30;;;;;;;27.95;18.33;;;6.90;90.10;;;;;;5027482;28;20035;-76
2023/02/11 06:21:56;;;;;;;28.98;19.27;;;6.90;90.20;;;;;;5044791;28;20060;-77
2023/02/11 06:24:22;;;;;;;31.50;19.67;;;6.80;90.30;;;;;;5042158;28;20036;-76
2023/02/11 06:26:48;;;;;;;32.25;20.85;;;6.90;90.30;;;;;;5034586;28;20096;-77
2023/02/11 06:29:14;;;;;;;28.70;19.58;;;6.90;90.50;;;;;;5026501;28;20064;-76
2023/02/11 06:31:40;;;;;;;30.20;19.33;;;7.00;90.50;;;;;;5042903;28;20405;-76
2023/02/11 06:34:08;;;;;;;31.98;19.25;;;7.00;90.50;;;;;;5040687;28;20029;-76
2023/02/11 06:36:33;;;;;;;27.33;18.33;;;6.90;90.50;;;;;;5025201;28;20132;-76
2023/02/11 06:38:59;;;;;;;30.45;19.73;;;7.00;90.50;;;;;;5044444;28;20581;-77
2023/02/11 06:41:25;;;;;;;36.25;21.65;;;7.00;90.50;;;;;;5040771;28;20516;-76
2023/02/11 06:43:52;;;;;;;29.40;21.23;;;7.00;90.60;;;;;;5034071;28;20435;-76
2023/02/11 06:46:18;;;;;;;31.30;20.70;;;7.00;90.70;;;;;;5034746;28;20076;-76
2023/02/11 06:48:43;;;;;;;32.38;21.20;;;7.00;90.60;;;;;;5034141;28;20022;-76
2023/02/11 06:51:12;;;;;;;34.95;21.73;;;7.00;90.70;;;;;;5042006;28;20362;-75
2023/02/11 06:53:43;;;;;;;36.63;22.65;;;7.00;90.80;;;;;;5024723;28;20481;-76
2023/02/11 06:56:12;;;;;;;34.22;22.60;;;7.10;90.80;;;;;;5033037;28;20507;-76
2023/02/11 06:58:38;;;;;;;33.90;22.08;;;7.00;90.90;;;;;;5035304;28;20029;-76
2023/02/11 07:01:09;;;;;;;36.65;23.13;;;7.00;90.90;;;;;;5038883;28;20476;-77
2023/02/11 07:03:36;;;;;;;36.13;23.30;;;7.10;91.00;;;;;;5040628;28;20025;-76
2023/02/11 07:06:06;;;;;;;40.05;26.05;;;7.10;91.00;;;;;;5037527;28;20041;-76
2023/02/11 07:08:33;;;;;;;38.70;24.45;;;7.10;91.10;;;;;;5033591;28;20300;-76
2023/02/11 07:10:59;;;;;;;39.95;26.60;;;7.10;91.10;;;;;;5037635;28;20064;-76
2023/02/11 07:13:24;;;;;;;48.22;26.73;;;7.10;91.10;;;;;;5035472;28;20032;-76
2023/02/11 07:15:50;;;;;;;40.20;26.90;;;7.20;91.20;;;;;;5040619;28;20484;-75
2023/02/11 07:18:16;;;;;;;39.33;26.40;;;7.20;91.20;;;;;;5042562;28;20127;-75
2023/02/11 07:20:42;;;;;;;38.13;25.80;;;7.30;91.10;;;;;;5042095;28;20032;-76
2023/02/11 07:23:07;;;;;;;37.95;25.00;;;7.30;91.10;;;;;;5039688;28;20025;-76
2023/02/11 07:25:34;;;;;;;43.50;26.65;;;7.30;91.20;;;;;;5043044;28;20033;-75
2023/02/11 07:28:00;;;;;;;40.72;26.38;;;7.30;91.20;;;;;;5042180;28;20307;-76
2023/02/11 07:30:25;;;;;;;39.90;26.10;;;7.40;91.20;;;;;;5043022;28;20040;-75
2023/02/11 07:32:51;;;;;;;41.75;26.45;;;7.30;91.10;;;;;;5039719;28;20037;-76
2023/02/11 07:35:17;;;;;;;38.35;25.92;;;7.40;91.20;;;;;;5021040;28;20140;-76
2023/02/11 07:37:42;;;;;;;44.20;26.92;;;7.40;91.10;;;;;;5024950;28;20040;-76
2023/02/11 07:40:09;;;;;;;46.30;28.02;;;7.40;91.20;;;;;;5040909;28;20595;-76
2023/02/11 07:42:35;;;;;;;41.55;28.65;;;7.40;91.20;;;;;;5036545;28;20047;-76
2023/02/11 07:45:00;;;;;;;44.00;27.38;;;7.40;91.20;;;;;;5037967;28;20037;-76
2023/02/11 07:47:26;;;;;;;43.95;29.73;;;7.50;91.20;;;;;;5018294;28;20034;-76
2023/02/11 07:49:52;;;;;;;46.83;28.40;;;7.50;91.30;;;;;;5037440;28;20026;-76
2023/02/11 07:52:18;;;;;;;41.45;27.90;;;7.50;91.30;;;;;;5032758;28;20410;-77
2023/02/11 07:54:44;;;;;;;43.88;29.05;;;7.50;91.20;;;;;;5014267;28;20489;-77
2023/02/11 07:57:10;;;;;;;46.55;28.42;;;7.50;91.20;;;;;;5037882;28;20037;-77
2023/02/11 07:59:36;;;;;;;44.60;29.95;;;7.60;91.10;;;;;;5041385;28;20025;-77
2023/02/11 08:02:02;;;;;;;43.45;28.58;;;7.60;91.10;;;;;;5040773;28;20044;-77
2023/02/11 08:04:27;;;;;;;47.10;28.25;;;7.60;91.20;;;;;;5044684;28;20032;-76
2023/02/11 08:06:55;;;;;;;43.10;30.30;;;7.60;91.10;;;;;;5035415;28;20559;-75
2023/02/11 08:09:22;;;;;;;43.78;29.60;;;7.60;91.10;;;;;;5041583;28;20330;-77
2023/02/11 08:11:48;;;;;;;46.22;29.80;;;7.70;91.10;;;;;;5023120;28;20840;-75
2023/02/11 08:14:14;;;;;;;43.50;29.17;;;7.70;91.10;;;;;;5049015;28;20078;-75
2023/02/11 08:16:40;;;;;;;45.20;31.83;;;7.70;91.10;;;;;;5021271;28;20056;-76
2023/02/11 08:19:10;;;;;;;45.40;28.67;;;7.70;91.00;;;;;;5047608;28;20041;-76
2023/02/11 08:21:36;;;;;;;49.67;30.27;;;7.70;91.00;;;;;;5038451;28;20175;-76
2023/02/11 08:24:03;;;;;;;40.67;27.98;;;7.70;91.00;;;;;;5038799;28;20077;-76
2023/02/11 08:26:30;;;;;;;44.17;28.73;;;7.80;90.90;;;;;;5034479;28;20376;-76
2023/02/11 08:28:57;;;;;;;42.85;28.83;;;7.90;90.90;;;;;;5042103;28;20477;-76
2023/02/11 08:31:30;;;;;;;42.03;28.25;;;7.80;90.80;;;;;;5033581;28;20474;-76
2023/02/11 08:33:57;;;;;;;46.78;29.65;;;7.80;90.80;;;;;;5038511;28;20033;-76
2023/02/11 08:36:25;;;;;;;42.70;29.08;;;7.80;90.80;;;;;;5038849;28;20515;-76
2023/02/11 08:38:54;;;;;;;44.10;29.45;;;7.90;90.80;;;;;;5040386;28;20025;-76
2023/02/11 08:41:19;;;;;;;43.13;29.63;;;7.90;90.80;;;;;;5040058;28;20805;-75
2023/02/11 08:43:45;;;;;;;42.45;29.80;;;7.90;90.70;;;;;;5040797;28;20377;-75
2023/02/11 08:46:14;;;;;;;42.40;28.23;;;8.00;90.80;;;;;;5021606;28;20366;-77
2023/02/11 08:48:40;;;;;;;44.45;30.45;;;8.00;90.60;;;;;;5039666;28;20036;-75
2023/02/11 08:51:33;;;;;;;43.83;29.65;;;8.00;90.50;;;;;;5039777;28;20122;-77
2023/02/11 08:54:00;;;;;;;48.45;30.85;;;8.10;90.50;;;;;;5038525;28;20044;-81
2023/02/11 08:56:26;;;;;;;45.33;30.35;;;8.00;90.30;;;;;;5037489;28;20090;-82
2023/02/11 08:58:52;;;;;;;49.03;31.58;;;8.10;90.40;;;;;;5040783;28;20109;-81
2023/02/11 09:01:22;;;;;;;52.25;32.80;;;8.10;90.40;;;;;;5036276;28;20037;-78
2023/02/11 09:03:48;;;;;;;52.00;34.40;;;8.20;90.30;;;;;;5043437;28;20035;-82
2023/02/11 09:06:16;;;;;;;47.28;33.08;;;8.20;90.10;;;;;;5042859;28;20037;-81
2023/02/11 09:08:44;;;;;;;51.22;32.55;;;8.20;90.00;;;;;;5042784;28;20207;-80
2023/02/11 09:11:11;;;;;;;58.90;35.13;;;8.20;89.90;;;;;;5042554;28;20024;-80
2023/02/11 09:13:37;;;;;;;51.85;34.78;;;8.20;89.90;;;;;;5038817;28;20031;-79
2023/02/11 09:16:04;;;;;;;53.75;34.83;;;8.30;89.90;;;;;;5043522;28;20029;-80
2023/02/11 09:18:30;;;;;;;59.50;38.40;;;8.20;89.80;;;;;;5039040;28;20063;-80
2023/02/11 09:21:04;;;;;;;54.78;37.60;;;8.30;89.90;;;;;;5036774;28;20537;-79
2023/02/11 09:23:33;;;;;;;60.00;40.08;;;8.20;89.90;;;;;;5032357;28;20524;-82
2023/02/11 09:25:59;;;;;;;64.65;41.90;;;8.20;90.00;;;;;;5041070;28;20466;-79
2023/02/11 09:28:25;;;;;;;61.65;41.78;;;8.20;89.90;;;;;;5038647;28;20130;-81
2023/02/11 09:30:51;;;;;;;62.60;41.78;;;8.20;89.90;;;;;;5025866;28;20520;-83
2023/02/11 09:33:16;;;;;;;56.33;38.80;;;8.20;90.00;;;;;;5041603;28;20481;-78
2023/02/11 09:35:42;;;;;;;60.75;40.60;;;8.30;90.00;;;;;;5038118;28;20083;-81
2023/02/11 09:38:08;;;;;;;56.30;37.78;;;8.20;89.90;;;;;;5022391;28;20029;-82
2023/02/11 09:40:33;;;;;;;52.30;37.25;;;8.20;89.90;;;;;;5041339;28;20029;-82
2023/02/11 09:43:07;;;;;;;55.13;36.97;;;8.20;89.90;;;;;;5019186;28;20311;-82
2023/02/11 09:45:34;;;;;;;50.35;34.53;;;8.30;89.90;;;;;;5040484;28;20165;-82
2023/02/11 09:48:16;;;;;;;49.83;34.15;;;8.40;89.80;;;;;;5042019;28;20028;-80
2023/02/11 09:50:48;;;;;;;46.50;33.03;;;8.40;89.60;;;;;;5039568;28;20458;-82
2023/02/11 09:53:25;;;;;;;49.33;34.03;;;8.40;89.40;;;;;;5037583;28;20036;-78
2023/02/11 09:55:58;;;;;;;47.05;33.30;;;8.50;89.40;;;;;;5040993;28;20041;-81
2023/02/11 09:58:30;;;;;;;48.25;33.65;;;8.50;89.20;;;;;;5043988;28;20065;-82
2023/02/11 10:01:11;;;;;;;44.25;31.63;;;8.40;89.10;;;;;;5026447;28;20040;-83
2023/02/11 10:03:36;;;;;;;45.97;32.83;;;8.50;89.40;;;;;;5043584;28;20095;-80
2023/02/11 10:06:33;;;;;;;46.78;33.67;;;8.60;89.30;;;;;;5035963;28;20041;-77
2023/02/11 10:09:08;;;;;;;43.65;32.78;;;8.60;89.10;;;;;;5044774;28;20979;-82
2023/02/11 10:11:58;;;;;;;43.47;31.13;;;8.60;88.70;;;;;;5041270;28;20132;-83
2023/02/11 10:14:31;;;;;;;43.20;33.38;;;8.60;88.70;;;;;;5025095;28;20385;-83
2023/02/11 10:17:15;;;;;;;43.42;33.33;;;8.60;88.80;;;;;;5043813;28;20041;-81
2023/02/11 10:20:02;;;;;;;40.25;31.65;;;8.60;88.90;;;;;;5038839;28;20478;-79
2023/02/11 10:22:37;;;;;;;42.88;31.48;;;8.70;88.90;;;;;;5035182;28;20037;-81
2023/02/11 10:25:25;;;;;;;42.00;31.15;;;8.70;88.80;;;;;;5045749;28;20021;-82
2023/02/11 10:27:54;;;;;;;41.83;31.52;;;8.60;88.90;;;;;;5037745;28;20048;-84
2023/02/11 10:30:35;;;;;;;40.80;31.08;;;8.70;88.90;;;;;;5034430;28;20021;-79
2023/02/11 10:33:13;;;;;;;45.05;31.48;;;8.70;89.00;;;;;;5034700;28;20127;-81
2023/02/11 10:35:39;;;;;;;40.50;29.52;;;8.70;88.90;;;;;;5037499;28;20041;-80
2023/02/11 10:38:04;;;;;;;39.42;29.05;;;8.70;88.90;;;;;;5020519;28;20705;-82
2023/02/11 10:40:31;;;;;;;43.17;29.63;;;8.90;88.80;;;;;;5032261;28;20021;-78
2023/02/11 10:43:01;;;;;;;38.15;27.08;;;8.90;88.50;;;;;;5033115;28;20087;-85
2023/02/11 10:45:33;;;;;;;39.83;28.75;;;9.00;88.30;;;;;;5032567;28;20043;-82
2023/02/11 10:48:43;;;;;;;36.83;26.58;;;9.10;88.30;;;;;;5029409;28;20033;-79
2023/02/11 10:51:18;;;;;;;36.20;26.83;;;9.10;87.90;;;;;;5034834;28;20155;-85
2023/02/11 10:53:45;;;;;;;36.15;26.50;;;9.20;87.70;;;;;;5039360;28;20032;-84
2023/02/11 10:56:18;;;;;;;35.38;26.98;;;9.10;87.70;;;;;;5039894;28;20497;-80
2023/02/11 10:59:05;;;;;;;33.83;25.85;;;9.10;87.70;;;;;;5033371;28;20021;-83
2023/02/11 11:01:41;;;;;;;33.50;25.17;;;9.10;87.70;;;;;;5044348;28;20048;-78
2023/02/11 11:04:27;;;;;;;32.90;24.27;;;9.10;87.70;;;;;;5026805;28;20045;-79
2023/02/11 11:06:52;;;;;;;31.80;23.13;;;9.10;87.60;;;;;;5023212;28;20076;-81
2023/02/11 11:09:46;;;;;;;31.67;24.33;;;9.10;87.70;;;;;;5026155;28;20139;-82
2023/02/11 11:12:25;;;;;;;32.08;24.63;;;9.20;87.50;;;;;;5027059;28;20060;-79
2023/02/11 11:15:15;;;;;;;37.97;25.10;;;9.30;87.60;;;;;;5028879;28;20037;-80
2023/02/11 11:17:41;;;;;;;32.25;22.40;;;9.30;87.40;;;;;;5013461;28;20095;-79
2023/02/11 11:20:28;;;;;;;31.25;22.70;;;9.40;87.40;;;;;;5035705;28;20036;-80
2023/02/11 11:23:18;;;;;;;33.05;22.88;;;9.40;87.10;;;;;;5046740;28;20041;-81
2023/02/11 11:26:12;;;;;;;31.77;24.10;;;9.40;87.00;;;;;;5030269;28;20049;-81
2023/02/11 11:28:53;;;;;;;33.30;23.67;;;9.50;87.10;;;;;;5013829;28;20576;-84
2023/02/11 11:31:34;;;;;;;32.00;23.70;;;9.50;87.00;;;;;;5027593;28;20064;-82
2023/02/11 11:34:21;;;;;;;29.90;22.70;;;9.50;87.00;;;;;;5014998;28;20021;-79
2023/02/11 11:36:48;;;;;;;32.30;23.42;;;9.60;86.70;;;;;;5020070;28;20351;-80
2023/02/11 11:39:28;;;;;;;31.60;23.75;;;9.70;86.90;;;;;;5030278;28;20076;-79
2023/02/11 11:42:00;;;;;;;32.50;23.38;;;9.70;86.50;;;;;;5014016;28;20048;-79
2023/02/11 11:44:32;;;;;;;29.75;24.13;;;9.70;86.50;;;;;;5029577;28;20162;-82
2023/02/11 11:47:28;;;;;;;33.33;24.60;;;9.80;86.10;;;;;;5035439;28;20037;-86
2023/02/11 11:50:14;;;;;;;32.47;23.27;;;9.80;85.80;;;;;;5012814;28;20131;-83
2023/02/11 11:53:03;;;;;;;29.45;21.95;;;9.70;85.80;;;;;;5040418;28;20034;-84
2023/02/11 11:55:34;;;;;;;35.08;25.13;;;9.90;85.90;;;;;;5027086;28;20041;-85
2023/02/11 11:58:04;;;;;;;29.77;22.25;;;9.90;85.60;;;;;;5036077;28;20748;-79
2023/02/11 12:00:57;;;;;;;28.55;22.15;;;10.00;85.60;;;;;;5033929;28;20045;-84
2023/02/11 12:04:08;;;;;;;32.38;24.48;;;10.10;85.30;;;;;;5032856;28;20044;-82
2023/02/11 12:06:59;;;;;;;29.02;22.65;;;10.10;85.00;;;;;;4998846;28;20471;-80
2023/02/11 12:09:34;;;;;;;33.15;22.75;;;10.00;85.10;;;;;;5043164;28;20561;-82
2023/02/11 12:12:36;;;;;;;32.50;23.83;;;9.90;85.30;;;;;;5039311;28;20049;-84
2023/02/11 12:15:12;;;;;;;29.00;22.35;;;9.90;85.50;;;;;;5037860;28;20052;-84
2023/02/11 12:17:40;;;;;;;30.27;22.63;;;10.00;85.50;;;;;;5033956;28;20688;-83
2023/02/11 12:20:43;;;;;;;30.15;23.80;;;10.10;85.20;;;;;;5036466;28;20029;-80
2023/02/11 12:23:33;;;;;;;32.38;22.70;;;10.00;85.10;;;;;;5041531;28;20048;-81
2023/02/11 12:26:08;;;;;;;31.35;23.02;;;10.10;85.10;;;;;;5041448;28;20118;-79
2023/02/11 12:28:59;;;;;;;32.17;22.13;;;10.00;85.20;;;;;;5038098;28;20045;-76
2023/02/11 12:31:42;;;;;;;33.65;22.10;;;10.00;85.20;;;;;;5035643;28;20432;-83
2023/02/11 12:34:23;;;;;;;29.67;23.08;;;10.00;85.20;;;;;;5035005;28;20104;-82
2023/02/11 12:37:09;;;;;;;29.88;23.08;;;10.00;85.30;;;;;;5025020;28;20132;-75
2023/02/11 12:39:59;;;;;;;33.05;22.15;;;9.90;85.50;;;;;;5027501;28;20060;-81
2023/02/11 12:43:15;;;;;;;31.90;23.58;;;10.00;85.70;;;;;;5035914;28;20041;-78
2023/02/11 12:46:03;;;;;;;31.35;23.83;;;9.90;85.70;;;;;;5039047;28;20102;-79
2023/02/11 12:48:54;;;;;;;33.40;22.55;;;9.90;85.70;;;;;;5038781;28;20032;-75
2023/02/11 12:51:24;;;;;;;30.50;22.42;;;9.90;85.70;;;;;;5039139;28;20041;-75
2023/02/11 12:53:55;;;;;;;28.92;22.20;;;9.90;85.60;;;;;;5040640;28;20053;-76
2023/02/11 12:56:30;;;;;;;30.27;22.98;;;9.90;85.70;;;;;;5039748;28;20044;-77
2023/02/11 12:58:59;;;;;;;33.58;23.70;;;10.00;85.80;;;;;;5022278;28;20085;-76
2023/02/11 13:01:34;;;;;;;33.63;24.30;;;9.90;85.80;;;;;;5023704;28;20041;-80
2023/02/11 13:04:40;;;;;;;30.58;23.58;;;10.00;85.70;;;;;;5026748;28;20037;-81